Time;durP1;ratioP1;P1;durP2;ratioP2;P2;SDS_P1;SDS_P2;PMS_P1;PMS_P2;Temp;Humidity;BMP_temperature;BMP_pressure;BME280_temperature;BME280_humidity;BME280_pressure;Samples;Min_cycle;Max_cycle;Signal;HPM_P1;HPM_P2
2022/05/10 00:00:58;;;;;;;6.80;4.55;;;;;;;16.28;57.60;99429.66;5005414;28;20300;-82
2022/05/10 00:03:30;;;;;;;5.57;4.18;;;;;;;16.29;57.98;99428.56;4988597;28;20397;-82
2022/05/10 00:05:55;;;;;;;8.27;4.30;;;;;;;16.23;58.13;99429.66;5000527;28;20029;-82
2022/05/10 00:08:21;;;;;;;8.75;4.55;;;;;;;16.18;57.80;99426.19;4988412;28;20041;-82
2022/05/10 00:10:46;;;;;;;8.55;4.53;;;;;;;16.15;57.98;99441.00;4977766;28;20037;-82
2022/05/10 00:13:13;;;;;;;5.72;4.55;;;;;;;16.16;58.02;99429.13;4989230;28;20115;-82
2022/05/10 00:15:39;;;;;;;4.32;3.80;;;;;;;16.09;58.23;99417.03;4995258;28;20033;-82
2022/05/10 00:18:04;;;;;;;7.57;4.60;;;;;;;16.12;57.90;99419.97;5005371;28;20021;-82
2022/05/10 00:20:30;;;;;;;4.57;3.95;;;;;;;16.05;58.05;99421.34;5005281;28;20032;-82
2022/05/10 00:22:56;;;;;;;6.30;3.80;;;;;;;16.02;58.31;99417.28;5006510;28;20427;-82
2022/05/10 00:25:27;;;;;;;5.25;4.53;;;;;;;16.00;58.11;99414.06;5025460;28;20051;-83
2022/05/10 00:27:53;;;;;;;8.80;4.20;;;;;;;15.99;58.08;99404.34;5005756;28;20041;-82
2022/05/10 00:30:19;;;;;;;6.38;4.43;;;;;;;15.96;58.13;99407.59;5007471;28;20482;-83
2022/05/10 00:32:45;;;;;;;5.30;4.20;;;;;;;15.92;58.52;99411.91;4986813;28;20032;-82
2022/05/10 00:35:16;;;;;;;6.13;4.15;;;;;;;15.92;58.34;99414.63;5023919;28;20060;-83
2022/05/10 00:37:43;;;;;;;4.32;3.88;;;;;;;15.90;58.28;99411.34;5024172;28;20044;-82
2022/05/10 00:40:09;;;;;;;10.23;4.40;;;;;;;15.87;58.55;99403.84;4996220;28;20397;-82
2022/05/10 00:42:41;;;;;;;5.95;3.85;;;;;;;15.85;58.58;99408.69;5023688;28;20029;-82
2022/05/10 00:45:15;;;;;;;10.70;4.70;;;;;;;15.84;58.47;99409.75;5009351;28;20022;-82
2022/05/10 00:47:51;;;;;;;6.18;4.15;;;;;;;15.82;58.02;99397.63;5011990;28;20037;-82
2022/05/10 00:50:25;;;;;;;5.55;4.18;;;;;;;15.81;58.55;99404.09;5005793;28;20493;-83
2022/05/10 00:53:01;;;;;;;6.95;4.75;;;;;;;15.79;58.65;99401.69;5005347;28;20697;-83
2022/05/10 00:55:40;;;;;;;7.25;4.13;;;;;;;15.79;58.58;99390.91;5024763;28;20056;-83
2022/05/10 00:58:39;;;;;;;5.50;3.97;;;;;;;15.72;58.97;99391.19;5011604;28;20029;-82
2022/05/10 01:01:05;;;;;;;9.38;5.25;;;;;;;15.62;58.93;99374.19;5005256;28;20500;-83
2022/05/10 01:03:36;;;;;;;7.55;4.35;;;;;;;15.64;58.60;99378.25;5005830;28;20480;-83
2022/05/10 01:06:24;;;;;;;7.50;3.90;;;;;;;15.58;58.73;99382.00;5020181;28;20057;-82
2022/05/10 01:08:59;;;;;;;4.40;4.00;;;;;;;15.58;59.07;99382.00;5006811;28;20025;-82
2022/05/10 01:11:30;;;;;;;6.10;4.32;;;;;;;15.57;59.06;99368.84;5028554;28;20034;-82
2022/05/10 01:14:04;;;;;;;6.80;4.72;;;;;;;15.50;59.15;99366.41;5029030;28;20033;-82
2022/05/10 01:16:29;;;;;;;6.95;4.55;;;;;;;15.47;59.07;99360.72;5030181;28;20031;-82
2022/05/10 01:18:55;;;;;;;5.10;4.60;;;;;;;15.41;59.10;99364.47;5006121;28;20030;-82
2022/05/10 01:21:59;;;;;;;9.98;4.82;;;;;;;15.39;59.18;99366.63;4990396;28;20036;-82
2022/05/10 01:24:43;;;;;;;16.40;5.20;;;;;;;15.43;59.36;99365.84;5001781;28;20032;-83
2022/05/10 01:27:20;;;;;;;6.75;4.47;;;;;;;15.41;59.08;99361.78;5010849;28;20403;-82
2022/05/10 01:30:09;;;;;;;6.93;4.10;;;;;;;15.35;59.06;99355.59;5028151;28;20022;-83
2022/05/10 01:36:12;;;;;;;6.82;4.45;;;;;;;15.31;59.23;99364.47;5024567;28;20045;-82
2022/05/10 01:38:45;;;;;;;8.18;4.10;;;;;;;15.33;59.42;99359.63;5004656;28;20554;-82
2022/05/10 01:41:39;;;;;;;6.28;4.10;;;;;;;15.34;59.07;99361.22;5006960;28;20413;-82
2022/05/10 01:44:36;;;;;;;7.00;4.90;;;;;;;15.29;59.44;99348.56;5022949;28;20045;-82
2022/05/10 01:47:11;;;;;;;9.75;5.00;;;;;;;15.18;59.71;99338.88;5010648;28;20040;-82
2022/05/10 01:49:45;;;;;;;6.03;4.30;;;;;;;15.16;59.76;99338.31;5031002;28;20033;-82
2022/05/10 01:52:20;;;;;;;5.25;4.25;;;;;;;15.17;60.08;99342.66;5024297;28;20397;-82
2022/05/10 01:55:01;;;;;;;6.97;4.68;;;;;;;15.16;59.57;99340.22;5009086;28;20432;-82
2022/05/10 01:57:29;;;;;;;5.22;4.72;;;;;;;15.17;60.01;99341.84;5025641;28;20489;-82
2022/05/10 02:00:04;;;;;;;11.30;4.90;;;;;;;15.09;60.12;99327.03;5029858;28;20025;-82
2022/05/10 02:02:31;;;;;;;7.22;4.28;;;;;;;15.06;59.99;99335.63;5008962;28;20025;-82
2022/05/10 02:05:00;;;;;;;6.82;4.45;;;;;;;15.09;60.02;99335.09;5009161;28;20042;-82
2022/05/10 02:07:26;;;;;;;6.28;4.53;;;;;;;15.05;60.26;99333.22;5006814;28;20033;-82
2022/05/10 02:10:08;;;;;;;9.40;4.18;;;;;;;15.03;59.95;99333.47;4987460;28;20501;-83
2022/05/10 02:13:10;;;;;;;5.35;4.32;;;;;;;15.02;59.82;99331.84;5008194;28;20025;-83
2022/05/10 02:15:49;;;;;;;7.18;4.40;;;;;;;15.01;59.75;99327.53;5018041;28;20125;-82
2022/05/10 02:18:35;;;;;;;6.07;4.05;;;;;;;14.97;59.92;99327.28;5023547;28;20393;-82
2022/05/10 02:21:16;;;;;;;5.78;4.18;;;;;;;14.97;60.01;99332.66;5008382;28;20025;-82
2022/05/10 02:23:52;;;;;;;7.18;4.57;;;;;;;14.98;60.08;99330.78;5006511;28;20382;-82
2022/05/10 02:26:56;;;;;;;4.72;4.28;;;;;;;14.92;59.92;99332.63;5008725;28;20025;-82
2022/05/10 02:29:42;;;;;;;6.50;4.25;;;;;;;14.93;60.00;99326.19;4993932;28;20565;-82
2022/05/10 02:35:02;;;;;;;5.85;4.35;;;;;;;14.84;60.51;99326.97;5025482;28;20041;-82
2022/05/10 02:37:27;;;;;;;6.28;4.35;;;;;;;14.88;60.21;99336.91;5008514;28;20037;-82
2022/05/10 02:39:53;;;;;;;5.97;4.18;;;;;;;14.87;60.13;99329.13;5025618;28;20042;-82
2022/05/10 02:42:21;;;;;;;5.75;4.70;;;;;;;14.83;60.08;99328.84;5001126;28;20029;-82
2022/05/10 02:44:50;;;;;;;6.95;5.20;;;;;;;14.84;60.03;99324.28;5000337;28;20073;-82
2022/05/10 02:47:26;;;;;;;9.23;5.25;;;;;;;14.76;60.61;99335.53;4990843;28;20116;-82
2022/05/10 02:49:51;;;;;;;7.93;4.80;;;;;;;14.76;60.41;99324.78;5023520;28;20079;-82
2022/05/10 02:52:17;;;;;;;7.55;5.45;;;;;;;14.78;60.03;99328.03;4990313;28;20436;-82
2022/05/10 02:54:42;;;;;;;8.63;5.05;;;;;;;14.75;60.40;99331.22;4987394;28;20033;-82
2022/05/10 02:57:07;;;;;;;8.55;5.45;;;;;;;14.74;60.34;99330.41;4997263;28;20112;-82
2022/05/10 02:59:35;;;;;;;5.32;4.65;;;;;;;14.63;60.55;99326.09;4988952;28;20338;-82
2022/05/10 03:02:17;;;;;;;6.70;4.65;;;;;;;14.67;60.66;99321.81;5007271;28;20393;-82
2022/05/10 03:04:49;;;;;;;4.90;4.32;;;;;;;14.63;60.06;99314.53;5026448;28;20032;-82
2022/05/10 03:07:15;;;;;;;4.78;4.35;;;;;;;14.62;60.63;99318.28;5004951;28;20095;-82
2022/05/10 03:09:41;;;;;;;6.90;4.90;;;;;;;14.60;60.46;99321.25;4989382;28;20037;-82
2022/05/10 03:12:07;;;;;;;5.32;4.82;;;;;;;14.57;60.30;99318.28;4986100;28;20030;-82
2022/05/10 03:14:33;;;;;;;9.15;4.85;;;;;;;14.51;60.57;99304.00;5007479;28;20033;-82
2022/05/10 03:16:58;;;;;;;6.43;4.57;;;;;;;14.55;60.80;99306.97;5006613;28;20052;-82
2022/05/10 03:19:24;;;;;;;6.03;5.00;;;;;;;14.51;60.71;99316.63;5011065;28;20389;-82
2022/05/10 03:21:49;;;;;;;10.68;6.03;;;;;;;14.47;60.78;99304.78;5024972;28;20037;-82
2022/05/10 03:24:15;;;;;;;5.65;4.53;;;;;;;14.43;60.38;99290.28;4986312;28;20128;-82
2022/05/10 03:26:45;;;;;;;7.55;5.10;;;;;;;14.53;60.98;99309.91;4993681;28;20419;-82
2022/05/10 03:29:11;;;;;;;5.63;4.40;;;;;;;14.47;60.88;99305.59;5006503;28;20083;-82
2022/05/10 03:31:36;;;;;;;7.95;4.68;;;;;;;14.46;60.72;99303.97;5023612;28;20034;-82
2022/05/10 03:36:46;;;;;;;9.27;4.63;;;;;;;14.32;61.39;99299.34;5031755;28;20045;-82
2022/05/10 03:39:11;;;;;;;5.78;5.10;;;;;;;14.32;60.90;99294.78;5026057;28;20051;-82
2022/05/10 03:41:37;;;;;;;7.90;4.60;;;;;;;14.25;61.42;99296.88;4989935;28;20041;-83
2022/05/10 03:44:02;;;;;;;8.80;4.63;;;;;;;14.26;61.40;99288.53;4988769;28;20044;-82
2022/05/10 03:46:28;;;;;;;9.00;4.78;;;;;;;14.37;61.25;99289.47;4990379;28;20474;-82
2022/05/10 03:48:53;;;;;;;7.50;5.20;;;;;;;14.32;61.49;99285.91;5024038;28;20056;-82
2022/05/10 03:51:19;;;;;;;8.85;5.18;;;;;;;14.34;61.52;99279.22;4992394;28;20034;-82
2022/05/10 03:53:44;;;;;;;5.93;4.88;;;;;;;14.35;61.20;99286.19;5025009;28;20071;-82
2022/05/10 03:56:10;;;;;;;7.97;5.53;;;;;;;14.27;61.55;99282.13;4988963;28;20417;-83
2022/05/10 03:58:36;;;;;;;7.03;4.38;;;;;;;14.30;61.33;99278.13;4991186;28;20049;-83
2022/05/10 04:01:02;;;;;;;11.27;5.03;;;;;;;14.30;60.96;99285.38;4993861;28;20393;-83
2022/05/10 04:03:27;;;;;;;9.30;5.15;;;;;;;14.26;61.85;99279.69;5008987;28;20116;-83
2022/05/10 04:05:53;;;;;;;7.80;4.57;;;;;;;14.27;61.96;99289.34;4992281;28;20099;-82
2022/05/10 04:08:18;;;;;;;5.57;4.95;;;;;;;14.22;61.88;99283.94;5006201;28;20443;-82
2022/05/10 04:10:43;;;;;;;6.13;4.70;;;;;;;14.13;62.09;99278.28;4999863;28;20065;-82
2022/05/10 04:13:10;;;;;;;8.18;5.28;;;;;;;14.22;62.32;99278.59;4968473;28;20462;-83
2022/05/10 04:15:36;;;;;;;6.40;5.10;;;;;;;14.15;62.38;99278.03;4992559;28;20025;-82
2022/05/10 04:18:01;;;;;;;7.50;4.65;;;;;;;14.24;61.85;99279.16;5005040;28;20082;-82
2022/05/10 04:20:26;;;;;;;11.18;5.10;;;;;;;14.24;62.55;99273.78;4994803;28;20102;-82
2022/05/10 04:22:51;;;;;;;6.60;4.80;;;;;;;14.16;62.40;99266.22;5018871;28;20041;-82
2022/05/10 04:25:18;;;;;;;6.82;5.40;;;;;;;14.15;63.13;99269.97;4989728;28;20088;-83
2022/05/10 04:27:43;;;;;;;6.22;4.53;;;;;;;14.18;63.28;99264.06;5007307;28;20441;-82
2022/05/10 04:30:10;;;;;;;7.00;4.97;;;;;;;14.21;62.97;99269.75;4995312;28;20137;-82
2022/05/10 04:32:37;;;;;;;6.50;4.93;;;;;;;14.12;63.62;99262.44;5005935;28;20439;-82
2022/05/10 04:35:04;;;;;;;7.20;4.90;;;;;;;14.13;63.83;99264.84;4998356;28;20503;-83
2022/05/10 04:37:29;;;;;;;6.97;5.30;;;;;;;14.08;63.74;99261.34;4994654;28;20124;-82
2022/05/10 04:42:42;;;;;;;7.75;4.72;;;;;;;14.23;64.03;99269.47;5024767;28;20032;-83
2022/05/10 04:45:08;;;;;;;10.90;5.13;;;;;;;14.27;64.07;99274.06;5008028;28;20029;-82
2022/05/10 04:47:33;;;;;;;6.00;5.13;;;;;;;14.31;64.13;99268.22;4988722;28;20030;-82
2022/05/10 04:49:59;;;;;;;8.40;5.10;;;;;;;14.40;63.84;99278.16;4993211;28;20180;-83
2022/05/10 04:52:24;;;;;;;7.53;5.32;;;;;;;14.42;64.08;99270.66;5010360;28;20061;-82
2022/05/10 04:54:49;;;;;;;7.93;4.50;;;;;;;14.51;63.65;99268.25;4994159;28;20164;-82
2022/05/10 04:57:15;;;;;;;6.93;4.80;;;;;;;14.61;63.80;99277.16;4978996;28;20381;-82
2022/05/10 04:59:40;;;;;;;9.20;4.93;;;;;;;14.74;63.25;99278.56;5007699;28;20087;-82
2022/05/10 05:02:05;;;;;;;6.50;4.75;;;;;;;14.82;63.40;99275.34;4997109;28;20053;-82
2022/05/10 05:04:31;;;;;;;8.38;4.90;;;;;;;14.87;62.67;99278.84;5007451;28;20040;-82
2022/05/10 05:06:56;;;;;;;7.53;5.13;;;;;;;14.93;62.89;99279.69;5025911;28;20034;-81
2022/05/10 05:09:21;;;;;;;13.57;5.85;;;;;;;14.92;64.42;99281.56;4998141;28;20436;-82
2022/05/10 05:11:47;;;;;;;11.02;6.78;;;;;;;15.04;64.24;99278.63;5023659;28;20045;-82
2022/05/10 05:14:12;;;;;;;11.10;5.50;;;;;;;14.98;64.32;99280.47;4991764;28;20116;-81
2022/05/10 05:16:38;;;;;;;9.13;4.80;;;;;;;14.99;63.90;99286.69;4976621;28;20056;-82
2022/05/10 05:19:03;;;;;;;9.23;5.45;;;;;;;15.02;63.55;99286.16;5018173;28;20076;-82
2022/05/10 05:21:29;;;;;;;8.82;5.93;;;;;;;15.05;63.24;99280.22;5006120;28;20064;-81
2022/05/10 05:23:54;;;;;;;9.63;5.45;;;;;;;15.10;63.10;99282.94;5004227;28;20120;-81
2022/05/10 05:26:22;;;;;;;12.70;5.60;;;;;;;15.07;62.83;99271.91;5005730;28;20033;-82
2022/05/10 05:28:47;;;;;;;9.35;5.53;;;;;;;15.15;62.88;99277.56;5003413;28;20401;-81
2022/05/10 05:31:14;;;;;;;9.70;5.03;;;;;;;15.18;62.93;99284.31;4995381;28;20048;-82
2022/05/10 05:33:39;;;;;;;9.75;5.43;;;;;;;15.17;62.97;99280.78;4985292;28;20061;-82
2022/05/10 05:36:05;;;;;;;10.38;5.70;;;;;;;15.25;62.50;99280.25;4991839;28;20461;-82
2022/05/10 05:38:30;;;;;;;7.55;5.50;;;;;;;15.27;63.16;99293.44;5006041;28;20493;-82
2022/05/10 05:40:55;;;;;;;9.93;5.50;;;;;;;15.28;63.35;99284.31;4986249;28;20053;-82
2022/05/10 05:43:22;;;;;;;7.88;5.25;;;;;;;15.30;63.16;99285.66;4985098;28;20473;-82
2022/05/10 05:45:50;;;;;;;9.68;6.22;;;;;;;15.29;63.58;99280.56;5007632;28;20051;-83
2022/05/10 05:48:15;;;;;;;11.88;6.07;;;;;;;15.27;64.39;99285.34;5005915;28;20112;-83
2022/05/10 05:50:41;;;;;;;11.32;6.03;;;;;;;15.18;64.54;99260.09;4998666;28;20104;-83
2022/05/10 05:53:06;;;;;;;8.13;5.80;;;;;;;15.30;65.10;99276.78;5002267;28;20125;-83
2022/05/10 05:55:32;;;;;;;9.10;6.13;;;;;;;15.39;64.99;99277.84;4987057;28;20107;-83
2022/05/10 05:58:00;;;;;;;10.73;6.45;;;;;;;15.41;65.18;99279.19;5007592;28;20033;-83
2022/05/10 06:00:26;;;;;;;11.90;5.45;;;;;;;15.39;65.36;99277.84;5002797;28;20025;-82
2022/05/10 06:02:51;;;;;;;8.23;5.60;;;;;;;15.46;64.27;99273.03;4983828;28;20033;-81
2022/05/10 06:05:18;;;;;;;9.45;5.30;;;;;;;15.49;63.83;99269.78;4982275;28;20045;-81
2022/05/10 06:07:44;;;;;;;8.35;5.38;;;;;;;15.54;63.38;99278.69;5004923;28;20427;-81
2022/05/10 06:10:11;;;;;;;8.55;5.40;;;;;;;15.57;63.27;99275.44;5003045;28;20029;-81
2022/05/10 06:12:37;;;;;;;8.43;5.32;;;;;;;15.68;63.26;99279.75;4985224;28;20120;-81
2022/05/10 06:15:09;;;;;;;6.45;5.20;;;;;;;15.72;63.08;99270.06;5029772;28;20052;-82
2022/05/10 06:17:36;;;;;;;6.32;5.35;;;;;;;15.83;62.91;99273.56;4980099;28;20071;-82
2022/05/10 06:20:04;;;;;;;9.05;5.00;;;;;;;15.82;63.07;99265.72;4983955;28;20477;-81
2022/05/10 06:22:30;;;;;;;8.07;5.40;;;;;;;15.87;63.16;99263.03;5009159;28;20041;-82
2022/05/10 06:24:55;;;;;;;9.80;5.53;;;;;;;15.92;62.82;99263.03;5020313;28;20038;-82
2022/05/10 06:27:20;;;;;;;8.05;5.07;;;;;;;15.96;62.86;99258.72;4971724;28;20033;-82
2022/05/10 06:29:45;;;;;;;6.30;5.13;;;;;;;16.02;61.84;99271.88;4990829;28;20040;-82
2022/05/10 06:32:11;;;;;;;7.07;4.95;;;;;;;16.04;61.83;99264.34;5008587;28;20098;-82
2022/05/10 06:34:40;;;;;;;8.23;4.82;;;;;;;16.06;61.68;99258.66;5008231;28;20086;-82
2022/05/10 06:38:15;;;;;;;6.43;4.70;;;;;;;16.04;61.70;99261.66;5006878;28;21492;-82
2022/05/10 06:39:51;;;;;;;8.95;5.60;;;;;;;16.15;61.79;99267.81;5006749;28;20034;-82
2022/05/10 06:42:22;;;;;;;7.80;5.45;;;;;;;16.20;61.50;99257.84;4991922;28;20041;-82
2022/05/10 06:44:47;;;;;;;7.00;4.68;;;;;;;16.14;61.43;99240.06;5007750;28;20029;-82
2022/05/10 06:47:12;;;;;;;5.75;4.57;;;;;;;16.27;62.29;99255.63;5005946;28;20516;-82
2022/05/10 06:49:38;;;;;;;10.05;5.07;;;;;;;16.37;61.97;99261.00;5004200;28;20040;-82
2022/05/10 06:52:03;;;;;;;7.47;5.03;;;;;;;16.40;61.95;99257.75;5026483;28;20148;-82
2022/05/10 06:54:29;;;;;;;11.02;5.40;;;;;;;16.45;62.64;99262.31;4990573;28;20520;-83
2022/05/10 06:56:54;;;;;;;10.82;5.00;;;;;;;16.54;62.42;99252.59;5018608;28;20034;-82
2022/05/10 06:59:19;;;;;;;9.98;5.97;;;;;;;16.61;62.21;99252.28;4986436;28;20504;-82
2022/05/10 07:01:45;;;;;;;9.20;6.03;;;;;;;16.75;63.85;99250.63;4972473;28;20085;-82
2022/05/10 07:04:10;;;;;;;13.10;5.55;;;;;;;16.80;63.62;99253.25;5003647;28;20022;-82
2022/05/10 07:06:35;;;;;;;8.25;5.60;;;;;;;16.87;63.16;99248.38;4981108;28;20448;-82
2022/05/10 07:09:01;;;;;;;8.98;5.13;;;;;;;16.92;63.74;99245.66;5010809;28;20033;-82
2022/05/10 07:11:26;;;;;;;5.75;4.95;;;;;;;17.01;63.32;99246.66;5009481;28;20104;-82
2022/05/10 07:13:51;;;;;;;8.05;6.05;;;;;;;17.10;63.05;99253.09;4981974;28;20056;-82
2022/05/10 07:16:16;;;;;;;8.93;5.13;;;;;;;17.18;62.73;99250.59;5030170;28;20120;-82
2022/05/10 07:18:42;;;;;;;8.63;5.45;;;;;;;17.26;63.13;99238.38;4982639;28;20477;-82
2022/05/10 07:21:07;;;;;;;9.68;4.97;;;;;;;17.30;62.54;99231.31;5011656;28;20024;-82
2022/05/10 07:23:33;;;;;;;6.82;4.68;;;;;;;17.41;62.76;99238.25;4992371;28;20045;-82
2022/05/10 07:25:58;;;;;;;5.65;4.97;;;;;;;17.51;62.59;99238.22;4992897;28;20470;-82
2022/05/10 07:28:29;;;;;;;10.50;5.68;;;;;;;17.53;62.65;99222.53;4996309;28;20030;-82
2022/05/10 07:30:54;;;;;;;6.75;5.05;;;;;;;17.59;62.25;99232.19;4977960;28;20033;-82
2022/05/10 07:33:20;;;;;;;9.75;5.15;;;;;;;17.65;62.19;99228.34;5008826;28;20400;-82
2022/05/10 07:38:30;;;;;;;6.65;4.85;;;;;;;17.86;62.31;99228.94;5015573;28;20991;-82
2022/05/10 07:40:55;;;;;;;6.13;4.70;;;;;;;17.90;61.65;99220.00;5005872;28;20120;-82
2022/05/10 07:43:21;;;;;;;8.98;5.85;;;;;;;18.00;61.56;99213.66;5005607;28;20211;-82
2022/05/10 07:45:48;;;;;;;7.13;4.72;;;;;;;18.09;61.81;99225.44;5004411;28;20022;-82
2022/05/10 07:48:14;;;;;;;8.30;4.40;;;;;;;18.28;61.39;99214.69;5015292;28;20425;-82
2022/05/10 07:50:39;;;;;;;7.72;4.50;;;;;;;18.41;60.91;99222.09;4972634;28;20037;-82
2022/05/10 07:53:08;;;;;;;6.22;4.45;;;;;;;18.53;61.32;99217.09;4992657;28;20095;-82
2022/05/10 07:55:34;;;;;;;8.02;4.85;;;;;;;18.65;60.60;99218.25;4990138;28;20052;-82
2022/05/10 07:58:00;;;;;;;6.50;4.03;;;;;;;18.70;60.77;99210.09;5004741;28;20400;-82
2022/05/10 08:00:25;;;;;;;5.97;4.43;;;;;;;18.92;60.46;99209.47;5007758;28;20032;-82
2022/05/10 08:02:50;;;;;;;7.38;4.22;;;;;;;19.04;60.36;99209.84;5010370;28;20029;-82
2022/05/10 08:05:22;;;;;;;4.65;4.05;;;;;;;19.10;59.90;99205.16;4973933;28;20042;-82
2022/05/10 08:07:48;;;;;;;7.97;4.18;;;;;;;19.21;59.72;99207.41;4993202;28;20045;-82
2022/05/10 08:10:14;;;;;;;5.13;3.83;;;;;;;19.34;59.68;99195.84;4989914;28;20102;-82
2022/05/10 08:12:40;;;;;;;6.88;4.05;;;;;;;19.50;59.62;99203.72;5031502;28;20080;-82
2022/05/10 08:15:06;;;;;;;5.35;3.90;;;;;;;19.56;59.45;99187.06;4992657;28;20021;-82
2022/05/10 08:17:31;;;;;;;7.68;4.50;;;;;;;19.63;59.51;99202.94;4996216;28;20030;-82
2022/05/10 08:19:57;;;;;;;4.35;3.75;;;;;;;19.75;59.18;99200.53;4984151;28;20425;-82
2022/05/10 08:22:22;;;;;;;7.22;4.03;;;;;;;19.82;59.21;99196.34;5011497;28;20079;-82
2022/05/10 08:24:48;;;;;;;7.05;4.18;;;;;;;19.89;58.83;99202.16;4999248;28;20128;-82
2022/05/10 08:27:13;;;;;;;7.60;4.53;;;;;;;20.01;59.04;99196.22;5012991;28;20508;-81
2022/05/10 08:29:38;;;;;;;6.75;4.45;;;;;;;20.00;58.81;99195.44;4985721;28;20088;-82
2022/05/10 08:32:04;;;;;;;8.73;4.35;;;;;;;20.15;58.65;99191.63;5016623;28;20021;-82
2022/05/10 08:34:29;;;;;;;6.20;5.05;;;;;;;20.24;58.93;99189.84;5004103;28;20477;-82
2022/05/10 08:36:56;;;;;;;5.88;3.95;;;;;;;20.32;58.67;99186.41;5002392;28;20123;-82
2022/05/10 08:39:22;;;;;;;9.32;4.13;;;;;;;20.36;58.71;99190.09;5000219;28;20033;-82
2022/05/10 08:41:53;;;;;;;4.25;3.85;;;;;;;20.45;58.68;99193.72;5014822;28;20036;-82
2022/05/10 08:44:23;;;;;;;6.90;4.40;;;;;;;20.53;58.42;99189.50;4981969;28;20049;-82
2022/05/10 08:47:06;;;;;;;6.15;4.65;;;;;;;20.61;57.81;99183.34;4998663;28;20493;-82
2022/05/10 08:49:53;;;;;;;7.82;5.00;;;;;;;20.66;56.58;99180.53;5011025;28;20026;-82
2022/05/10 08:52:24;;;;;;;9.15;4.57;;;;;;;20.61;56.80;99175.19;5015370;28;20102;-82
2022/05/10 08:54:49;;;;;;;6.60;5.30;;;;;;;20.66;55.89;99178.59;5018021;28;20037;-82
2022/05/10 08:58:02;;;;;;;5.35;4.88;;;;;;;20.72;56.10;99176.56;5013557;28;20033;-82
2022/05/10 09:00:36;;;;;;;13.43;5.53;;;;;;;20.63;56.15;99176.50;4979489;28;20769;-82
2022/05/10 09:03:21;;;;;;;6.03;4.68;;;;;;;20.52;56.72;99180.53;5018339;28;20025;-82
2022/05/10 09:05:47;;;;;;;6.65;4.60;;;;;;;20.42;55.83;99161.78;5034246;28;20072;-82
2022/05/10 09:08:27;;;;;;;7.85;5.25;;;;;;;20.45;56.01;99166.59;5000780;28;20036;-82
2022/05/10 09:10:57;;;;;;;6.18;4.45;;;;;;;20.48;55.52;99166.00;5013676;28;20018;-82
2022/05/10 09:13:23;;;;;;;6.13;5.10;;;;;;;20.48;55.54;99166.00;5030825;28;20029;-82
2022/05/10 09:16:08;;;;;;;6.25;5.10;;;;;;;20.50;55.56;99158.34;5024505;28;20501;-82
2022/05/10 09:18:49;;;;;;;7.57;5.00;;;;;;;20.55;55.60;99163.66;5009300;28;20125;-83
2022/05/10 09:21:23;;;;;;;8.88;5.68;;;;;;;20.75;54.44;99157.75;5023809;28;20029;-85
2022/05/10 09:24:25;;;;;;;34.92;7.28;;;;;;;20.82;54.77;99155.44;5031402;28;20025;-85
2022/05/10 09:26:53;;;;;;;13.70;5.55;;;;;;;20.84;55.01;99153.22;5007086;28;20028;-86
2022/05/10 09:29:19;;;;;;;7.72;5.55;;;;;;;21.12;54.80;99153.91;5016961;28;20043;-86
2022/05/10 09:34:47;;;;;;;14.82;6.75;;;;;;;21.30;54.01;99154.81;5012923;28;20036;-86
2022/05/10 09:37:21;;;;;;;7.47;5.75;;;;;;;21.37;52.97;99149.75;5011311;28;20033;-86
2022/05/10 09:39:56;;;;;;;11.25;5.80;;;;;;;21.45;52.17;99136.22;5014502;28;20037;-85
2022/05/10 09:42:35;;;;;;;11.38;5.75;;;;;;;21.82;51.47;99134.91;5013013;28;20033;-86
2022/05/10 09:45:26;;;;;;;9.18;5.57;;;;;;;21.86;52.10;99135.94;4996868;28;20047;-85
2022/05/10 09:48:00;;;;;;;10.35;5.45;;;;;;;22.01;51.26;99132.78;5013245;28;20175;-86
2022/05/10 09:50:52;;;;;;;8.68;5.32;;;;;;;21.96;52.06;99122.06;5029972;28;20040;-85
2022/05/10 09:53:27;;;;;;;7.43;5.82;;;;;;;22.08;52.08;99132.31;5010649;28;20558;-85
2022/05/10 09:55:58;;;;;;;8.80;6.07;;;;;;;22.06;51.29;99124.47;5010721;28;20040;-86
2022/05/10 09:58:53;;;;;;;8.27;5.90;;;;;;;22.26;50.80;99118.44;4986781;28;20124;-86
2022/05/10 10:01:38;;;;;;;12.68;5.15;;;;;;;22.50;50.35;99122.63;5003555;28;20060;-86
2022/05/10 10:04:13;;;;;;;7.95;5.40;;;;;;;22.45;50.65;99122.78;5000746;28;20033;-86
2022/05/10 10:06:38;;;;;;;5.55;5.05;;;;;;;22.42;51.16;99121.50;5025034;28;20025;-86
2022/05/10 10:09:03;;;;;;;10.73;5.60;;;;;;;22.44;51.01;99121.97;4967244;28;20036;-85
2022/05/10 10:11:39;;;;;;;6.32;4.93;;;;;;;22.44;51.04;99108.38;4977089;28;20497;-86
2022/05/10 10:14:08;;;;;;;8.95;5.10;;;;;;;22.48;51.32;99117.50;4988577;28;20535;-86
2022/05/10 10:17:07;;;;;;;7.03;4.82;;;;;;;22.54;50.91;99118.16;4991791;28;20559;-86
2022/05/10 10:19:40;;;;;;;6.65;5.55;;;;;;;22.55;51.08;99100.69;4969971;28;20164;-86
2022/05/10 10:22:12;;;;;;;7.38;5.03;;;;;;;22.66;50.83;99116.41;5023988;28;20543;-86
2022/05/10 10:24:51;;;;;;;5.43;4.93;;;;;;;22.76;50.84;99109.84;5009553;28;20036;-86
2022/05/10 10:27:42;;;;;;;9.40;5.05;;;;;;;22.84;50.53;99109.84;5027526;28;20029;-86
2022/05/10 10:30:27;;;;;;;8.90;4.75;;;;;;;22.89;50.22;99104.22;5008950;28;20033;-86
2022/05/10 10:33:00;;;;;;;7.32;5.00;;;;;;;22.96;50.47;99109.16;4990154;28;20466;-86
2022/05/10 10:35:38;;;;;;;5.05;4.65;;;;;;;22.99;50.25;99097.63;5008933;28;20470;-86
2022/05/10 10:38:12;;;;;;;6.00;5.30;;;;;;;23.10;50.07;99094.25;5010240;28;20390;-85
2022/05/10 10:40:43;;;;;;;6.50;4.43;;;;;;;23.16;49.99;99094.88;5004246;28;20036;-86
2022/05/10 10:43:11;;;;;;;9.38;5.30;;;;;;;23.21;49.90;99094.69;4988388;28;20030;-86
2022/05/10 10:45:51;;;;;;;6.43;4.97;;;;;;;23.34;49.61;99099.19;5011038;28;20127;-86
2022/05/10 10:48:27;;;;;;;5.55;4.90;;;;;;;23.43;49.08;99078.16;5007537;28;20032;-86
2022/05/10 10:50:53;;;;;;;;;;;;;;;23.54;48.83;99073.94;5007547;28;20486;-86
2022/05/10 10:53:20;;;;;;;7.73;5.20;;;;;;;23.55;48.65;99074.72;5006449;28;19925;-86
2022/05/10 10:55:47;;;;;;;5.68;4.68;;;;;;;23.68;48.51;99069.03;4991218;28;20286;-86
2022/05/10 10:58:46;;;;;;;11.25;5.93;;;;;;;23.83;48.23;99064.94;5010752;28;20516;-86
2022/05/10 11:01:56;;;;;;;9.25;4.65;;;;;;;23.90;48.43;99058.97;5004881;28;20116;-86
2022/05/10 11:04:45;;;;;;;10.63;4.40;;;;;;;24.10;47.80;99060.97;4944982;28;20775;-86
2022/05/10 11:07:14;;;;;;;7.78;5.00;;;;;;;24.12;48.18;99054.03;5004070;28;20029;-86
2022/05/10 11:09:39;;;;;;;7.43;5.82;;;;;;;24.19;47.65;99048.06;5011078;28;20033;-86
2022/05/10 11:12:28;;;;;;;5.17;4.67;;;;;;;24.27;47.50;99056.19;5009696;28;20040;-86
2022/05/10 11:15:00;;;;;;;6.55;4.88;;;;;;;24.30;47.46;99049.25;5009524;28;20270;-85
2022/05/10 11:17:37;;;;;;;5.65;5.03;;;;;;;24.29;47.27;99053.09;5005726;28;20179;-86
2022/05/10 11:20:19;;;;;;;5.35;4.60;;;;;;;24.32;47.20;99055.19;5011739;28;20489;-85
2022/05/10 11:23:10;;;;;;;7.80;4.43;;;;;;;24.32;47.05;99052.44;5023811;28;20086;-85
2022/05/10 11:25:54;;;;;;;8.60;4.43;;;;;;;24.37;47.04;99039.41;4992446;28;20029;-85
2022/05/10 11:28:47;;;;;;;10.20;5.30;;;;;;;24.42;46.92;99033.72;5005980;28;20051;-86
2022/05/10 11:31:48;;;;;;;6.45;4.43;;;;;;;24.55;46.56;99031.88;5001655;28;20132;-85
2022/05/10 11:34:31;;;;;;;6.35;4.68;;;;;;;24.65;46.74;99028.72;5006041;28;20057;-85
2022/05/10 11:37:01;;;;;;;5.47;4.57;;;;;;;24.70;46.75;99024.97;5026259;28;20120;-85
2022/05/10 11:39:29;;;;;;;11.10;5.40;;;;;;;24.70;45.72;99023.06;5001527;28;20041;-87
2022/05/10 11:42:02;;;;;;;5.85;4.95;;;;;;;24.55;45.88;99026.41;5008014;28;20112;-87
2022/05/10 11:44:43;;;;;;;5.80;5.20;;;;;;;24.84;44.58;99025.50;5013030;28;20051;-87
2022/05/10 11:47:17;;;;;;;6.88;4.68;;;;;;;24.70;44.51;99020.31;5000356;28;21841;-87
2022/05/10 11:49:48;;;;;;;6.25;4.50;;;;;;;24.71;44.85;99010.19;5024733;28;20037;-86
2022/05/10 11:52:38;;;;;;;8.95;4.75;;;;;;;24.77;44.67;99008.88;5009704;28;20030;-85
2022/05/10 11:55:24;;;;;;;6.60;5.05;;;;;;;25.11;44.27;98998.38;5003674;28;20033;-85
2022/05/10 11:57:56;;;;;;;10.43;4.90;;;;;;;25.10;44.40;98987.75;5005592;28;20030;-85
2022/05/10 12:00:30;;;;;;;12.38;4.60;;;;;;;25.05;44.33;98996.19;5008257;28;20025;-85
2022/05/10 12:03:00;;;;;;;5.00;4.47;;;;;;;25.02;44.77;98994.94;5001016;28;20025;-85
2022/05/10 12:05:31;;;;;;;4.88;4.30;;;;;;;25.00;44.53;98988.22;5011811;28;20315;-85
2022/05/10 12:08:05;;;;;;;6.70;4.57;;;;;;;25.05;44.29;98986.03;4987729;28;20039;-85